sensor_id;sensor_type;location;lat;lon;timestamp;P1;durP1;ratioP1;P2;durP2;ratioP2
44985;SDS011;30721;49.380;7.736;2022-09-06T00:01:22;2.13;;;1.92;;
44985;SDS011;30721;49.380;7.736;2022-09-06T00:03:48;1.88;;;1.73;;
44985;SDS011;30721;49.380;7.736;2022-09-06T00:06:15;2.45;;;2.13;;
44985;SDS011;30721;49.380;7.736;2022-09-06T00:08:42;2.40;;;2.20;;
44985;SDS011;30721;49.380;7.736;2022-09-06T00:11:09;2.42;;;2.10;;
44985;SDS011;30721;49.380;7.736;2022-09-06T00:13:35;2.33;;;2.17;;
44985;SDS011;30721;49.380;7.736;2022-09-06T00:16:07;5.53;;;2.50;;
44985;SDS011;30721;49.380;7.736;2022-09-06T00:18:37;2.50;;;2.30;;
44985;SDS011;30721;49.380;7.736;2022-09-06T00:21:03;2.47;;;2.00;;
44985;SDS011;30721;49.380;7.736;2022-09-06T00:23:29;3.25;;;2.58;;
44985;SDS011;30721;49.380;7.736;2022-09-06T00:26:05;2.88;;;2.45;;
44985;SDS011;30721;49.380;7.736;2022-09-06T00:28:30;2.47;;;2.28;;
44985;SDS011;30721;49.380;7.736;2022-09-06T00:30:55;3.25;;;2.20;;
44985;SDS011;30721;49.380;7.736;2022-09-06T00:33:22;4.82;;;2.70;;
44985;SDS011;30721;49.380;7.736;2022-09-06T00:35:48;4.22;;;2.30;;
44985;SDS011;30721;49.380;7.736;2022-09-06T00:38:13;6.38;;;2.40;;
44985;SDS011;30721;49.380;7.736;2022-09-06T00:40:39;2.88;;;1.90;;
44985;SDS011;30721;49.380;7.736;2022-09-06T00:43:06;2.40;;;2.20;;
44985;SDS011;30721;49.380;7.736;2022-09-06T00:45:31;3.97;;;2.13;;
44985;SDS011;30721;49.380;7.736;2022-09-06T00:47:57;3.35;;;1.95;;
44985;SDS011;30721;49.380;7.736;2022-09-06T01:05:07;4.40;;;2.30;;
44985;SDS011;30721;49.380;7.736;2022-09-06T01:30:01;3.63;;;3.08;;
44985;SDS011;30721;49.380;7.736;2022-09-06T01:32:34;3.40;;;3.03;;
44985;SDS011;30721;49.380;7.736;2022-09-06T01:35:28;3.90;;;3.50;;
44985;SDS011;30721;49.380;7.736;2022-09-06T01:37:58;4.30;;;3.13;;
44985;SDS011;30721;49.380;7.736;2022-09-06T01:40:24;4.68;;;3.25;;
44985;SDS011;30721;49.380;7.736;2022-09-06T01:42:49;5.90;;;4.10;;
44985;SDS011;30721;49.380;7.736;2022-09-06T01:45:18;4.95;;;3.67;;
44985;SDS011;30721;49.380;7.736;2022-09-06T01:50:50;4.88;;;3.40;;
44985;SDS011;30721;49.380;7.736;2022-09-06T01:53:56;4.53;;;3.63;;
44985;SDS011;30721;49.380;7.736;2022-09-06T01:56:21;4.10;;;3.40;;
44985;SDS011;30721;49.380;7.736;2022-09-06T02:01:30;5.07;;;3.85;;
44985;SDS011;30721;49.380;7.736;2022-09-06T02:04:10;3.72;;;3.33;;
44985;SDS011;30721;49.380;7.736;2022-09-06T02:06:41;4.38;;;3.33;;
44985;SDS011;30721;49.380;7.736;2022-09-06T02:09:10;4.25;;;3.22;;
44985;SDS011;30721;49.380;7.736;2022-09-06T02:11:44;4.78;;;4.00;;
44985;SDS011;30721;49.380;7.736;2022-09-06T02:14:14;6.70;;;3.38;;
44985;SDS011;30721;49.380;7.736;2022-09-06T02:16:43;6.40;;;3.65;;
44985;SDS011;30721;49.380;7.736;2022-09-06T02:19:28;3.92;;;3.30;;
44985;SDS011;30721;49.380;7.736;2022-09-06T02:21:57;3.30;;;3.00;;
44985;SDS011;30721;49.380;7.736;2022-09-06T02:24:28;3.45;;;2.88;;
44985;SDS011;30721;49.380;7.736;2022-09-06T02:26:55;2.63;;;2.42;;
44985;SDS011;30721;49.380;7.736;2022-09-06T02:29:20;5.25;;;2.83;;
44985;SDS011;30721;49.380;7.736;2022-09-06T02:32:01;3.13;;;2.60;;
44985;SDS011;30721;49.380;7.736;2022-09-06T02:34:28;3.72;;;2.40;;
44985;SDS011;30721;49.380;7.736;2022-09-06T02:36:54;3.80;;;2.72;;
44985;SDS011;30721;49.380;7.736;2022-09-06T02:39:19;2.83;;;2.53;;
44985;SDS011;30721;49.380;7.736;2022-09-06T02:41:45;3.50;;;2.58;;
44985;SDS011;30721;49.380;7.736;2022-09-06T02:44:12;3.97;;;2.65;;
44985;SDS011;30721;49.380;7.736;2022-09-06T02:46:38;3.03;;;2.70;;
44985;SDS011;30721;49.380;7.736;2022-09-06T02:49:03;3.13;;;2.78;;
44985;SDS011;30721;49.380;7.736;2022-09-06T02:51:29;3.80;;;3.40;;
44985;SDS011;30721;49.380;7.736;2022-09-06T02:53:54;4.25;;;2.80;;
44985;SDS011;30721;49.380;7.736;2022-09-06T02:56:20;3.75;;;3.38;;
44985;SDS011;30721;49.380;7.736;2022-09-06T02:58:46;3.78;;;2.55;;
44985;SDS011;30721;49.380;7.736;2022-09-06T03:01:12;4.20;;;3.50;;
44985;SDS011;30721;49.380;7.736;2022-09-06T03:03:37;3.50;;;3.13;;
44985;SDS011;30721;49.380;7.736;2022-09-06T03:06:03;3.92;;;3.20;;
44985;SDS011;30721;49.380;7.736;2022-09-06T03:08:28;4.18;;;2.90;;
44985;SDS011;30721;49.380;7.736;2022-09-06T03:10:57;4.20;;;2.63;;
44985;SDS011;30721;49.380;7.736;2022-09-06T03:13:23;4.15;;;2.75;;
44985;SDS011;30721;49.380;7.736;2022-09-06T03:15:58;3.90;;;2.60;;
44985;SDS011;30721;49.380;7.736;2022-09-06T03:18:25;4.10;;;2.72;;
44985;SDS011;30721;49.380;7.736;2022-09-06T03:20:51;5.57;;;2.95;;
44985;SDS011;30721;49.380;7.736;2022-09-06T03:23:18;3.90;;;2.63;;
44985;SDS011;30721;49.380;7.736;2022-09-06T03:25:44;2.63;;;2.28;;
44985;SDS011;30721;49.380;7.736;2022-09-06T03:28:09;3.38;;;2.30;;
44985;SDS011;30721;49.380;7.736;2022-09-06T03:30:35;4.07;;;2.65;;
44985;SDS011;30721;49.380;7.736;2022-09-06T03:33:01;3.47;;;2.30;;
44985;SDS011;30721;49.380;7.736;2022-09-06T03:35:26;2.40;;;2.20;;
44985;SDS011;30721;49.380;7.736;2022-09-06T03:37:52;4.78;;;2.58;;
44985;SDS011;30721;49.380;7.736;2022-09-06T03:40:17;3.10;;;2.10;;
44985;SDS011;30721;49.380;7.736;2022-09-06T03:42:42;2.90;;;2.53;;
44985;SDS011;30721;49.380;7.736;2022-09-06T03:45:08;2.42;;;2.22;;
44985;SDS011;30721;49.380;7.736;2022-09-06T03:47:33;3.63;;;2.80;;
44985;SDS011;30721;49.380;7.736;2022-09-06T03:49:59;3.67;;;2.80;;
44985;SDS011;30721;49.380;7.736;2022-09-06T03:52:24;2.75;;;2.35;;
44985;SDS011;30721;49.380;7.736;2022-09-06T03:54:49;2.40;;;2.20;;
44985;SDS011;30721;49.380;7.736;2022-09-06T03:57:15;2.60;;;2.33;;
44985;SDS011;30721;49.380;7.736;2022-09-06T03:59:40;2.92;;;2.58;;
44985;SDS011;30721;49.380;7.736;2022-09-06T04:02:05;3.05;;;2.50;;
44985;SDS011;30721;49.380;7.736;2022-09-06T04:04:31;4.15;;;2.67;;
44985;SDS011;30721;49.380;7.736;2022-09-06T04:06:57;2.92;;;2.55;;
44985;SDS011;30721;49.380;7.736;2022-09-06T04:09:22;3.90;;;2.70;;
44985;SDS011;30721;49.380;7.736;2022-09-06T04:11:48;4.05;;;2.90;;
44985;SDS011;30721;49.380;7.736;2022-09-06T04:14:13;3.72;;;2.10;;
44985;SDS011;30721;49.380;7.736;2022-09-06T04:16:39;2.78;;;2.33;;
44985;SDS011;30721;49.380;7.736;2022-09-06T04:19:04;3.70;;;2.92;;
44985;SDS011;30721;49.380;7.736;2022-09-06T04:21:29;3.53;;;2.58;;
44985;SDS011;30721;49.380;7.736;2022-09-06T04:23:55;3.42;;;2.40;;
44985;SDS011;30721;49.380;7.736;2022-09-06T04:26:20;3.13;;;2.33;;
44985;SDS011;30721;49.380;7.736;2022-09-06T04:28:46;3.47;;;2.60;;
44985;SDS011;30721;49.380;7.736;2022-09-06T04:31:11;2.90;;;2.60;;
44985;SDS011;30721;49.380;7.736;2022-09-06T04:33:37;2.58;;;2.30;;
44985;SDS011;30721;49.380;7.736;2022-09-06T04:36:03;3.53;;;2.65;;
44985;SDS011;30721;49.380;7.736;2022-09-06T04:38:34;3.55;;;2.67;;
44985;SDS011;30721;49.380;7.736;2022-09-06T04:41:03;3.85;;;2.70;;
44985;SDS011;30721;49.380;7.736;2022-09-06T04:43:29;3.60;;;2.63;;
44985;SDS011;30721;49.380;7.736;2022-09-06T04:45:55;3.33;;;2.92;;
44985;SDS011;30721;49.380;7.736;2022-09-06T04:48:20;3.53;;;2.63;;
44985;SDS011;30721;49.380;7.736;2022-09-06T04:50:45;3.03;;;2.72;;
44985;SDS011;30721;49.380;7.736;2022-09-06T04:53:11;3.03;;;2.70;;
44985;SDS011;30721;49.380;7.736;2022-09-06T04:55:36;5.32;;;2.88;;
44985;SDS011;30721;49.380;7.736;2022-09-06T04:58:02;2.97;;;2.45;;
44985;SDS011;30721;49.380;7.736;2022-09-06T05:00:30;2.60;;;2.17;;
44985;SDS011;30721;49.380;7.736;2022-09-06T05:02:56;3.05;;;2.63;;
44985;SDS011;30721;49.380;7.736;2022-09-06T05:05:22;3.20;;;2.90;;
44985;SDS011;30721;49.380;7.736;2022-09-06T05:07:54;3.65;;;3.00;;
44985;SDS011;30721;49.380;7.736;2022-09-06T05:10:20;3.67;;;2.97;;
44985;SDS011;30721;49.380;7.736;2022-09-06T05:12:47;2.58;;;2.38;;
44985;SDS011;30721;49.380;7.736;2022-09-06T05:15:13;3.10;;;2.50;;
44985;SDS011;30721;49.380;7.736;2022-09-06T05:17:39;2.40;;;2.20;;
44985;SDS011;30721;49.380;7.736;2022-09-06T05:20:05;3.63;;;2.83;;
44985;SDS011;30721;49.380;7.736;2022-09-06T05:22:34;4.07;;;2.60;;
44985;SDS011;30721;49.380;7.736;2022-09-06T05:24:59;3.08;;;2.75;;
44985;SDS011;30721;49.380;7.736;2022-09-06T05:27:25;3.95;;;3.00;;
44985;SDS011;30721;49.380;7.736;2022-09-06T05:29:50;3.90;;;2.90;;
44985;SDS011;30721;49.380;7.736;2022-09-06T05:32:15;3.20;;;2.60;;
44985;SDS011;30721;49.380;7.736;2022-09-06T05:34:41;3.10;;;2.80;;
44985;SDS011;30721;49.380;7.736;2022-09-06T05:37:06;4.05;;;2.70;;
44985;SDS011;30721;49.380;7.736;2022-09-06T05:39:31;2.88;;;2.58;;
44985;SDS011;30721;49.380;7.736;2022-09-06T05:41:57;3.50;;;2.63;;
44985;SDS011;30721;49.380;7.736;2022-09-06T05:44:22;3.53;;;3.15;;
44985;SDS011;30721;49.380;7.736;2022-09-06T05:46:48;3.38;;;3.08;;
44985;SDS011;30721;49.380;7.736;2022-09-06T05:49:14;5.63;;;3.95;;
44985;SDS011;30721;49.380;7.736;2022-09-06T05:51:39;5.15;;;3.95;;
44985;SDS011;30721;49.380;7.736;2022-09-06T05:54:05;4.55;;;3.30;;
44985;SDS011;30721;49.380;7.736;2022-09-06T05:56:32;4.70;;;3.97;;
44985;SDS011;30721;49.380;7.736;2022-09-06T05:58:57;3.53;;;3.10;;
44985;SDS011;30721;49.380;7.736;2022-09-06T06:01:23;3.60;;;3.30;;
44985;SDS011;30721;49.380;7.736;2022-09-06T06:03:57;4.07;;;3.67;;
44985;SDS011;30721;49.380;7.736;2022-09-06T06:06:25;4.53;;;3.47;;
44985;SDS011;30721;49.380;7.736;2022-09-06T06:08:52;4.85;;;3.28;;
44985;SDS011;30721;49.380;7.736;2022-09-06T06:11:18;4.15;;;3.72;;
44985;SDS011;30721;49.380;7.736;2022-09-06T06:13:44;4.18;;;3.30;;
44985;SDS011;30721;49.380;7.736;2022-09-06T06:16:13;2.85;;;2.65;;
44985;SDS011;30721;49.380;7.736;2022-09-06T06:18:40;3.38;;;3.08;;
44985;SDS011;30721;49.380;7.736;2022-09-06T06:21:16;3.95;;;3.28;;
44985;SDS011;30721;49.380;7.736;2022-09-06T06:23:42;2.95;;;2.65;;
44985;SDS011;30721;49.380;7.736;2022-09-06T06:26:10;4.05;;;3.42;;
44985;SDS011;30721;49.380;7.736;2022-09-06T06:28:36;2.80;;;2.60;;
44985;SDS011;30721;49.380;7.736;2022-09-06T06:31:02;3.20;;;2.90;;
44985;SDS011;30721;49.380;7.736;2022-09-06T06:33:28;2.90;;;2.67;;
44985;SDS011;30721;49.380;7.736;2022-09-06T06:36:01;3.38;;;3.08;;
44985;SDS011;30721;49.380;7.736;2022-09-06T06:38:30;4.53;;;3.33;;
44985;SDS011;30721;49.380;7.736;2022-09-06T06:40:57;4.25;;;3.10;;
44985;SDS011;30721;49.380;7.736;2022-09-06T06:43:26;4.18;;;2.90;;
44985;SDS011;30721;49.380;7.736;2022-09-06T06:45:52;2.85;;;2.63;;
44985;SDS011;30721;49.380;7.736;2022-09-06T06:48:17;3.20;;;2.90;;
44985;SDS011;30721;49.380;7.736;2022-09-06T06:50:43;3.10;;;2.80;;
44985;SDS011;30721;49.380;7.736;2022-09-06T06:53:08;3.42;;;3.13;;
44985;SDS011;30721;49.380;7.736;2022-09-06T06:55:34;4.05;;;3.42;;
44985;SDS011;30721;49.380;7.736;2022-09-06T06:57:59;4.43;;;3.90;;
44985;SDS011;30721;49.380;7.736;2022-09-06T07:00:25;3.75;;;3.45;;
44985;SDS011;30721;49.380;7.736;2022-09-06T07:02:50;3.47;;;3.03;;
44985;SDS011;30721;49.380;7.736;2022-09-06T07:05:17;3.45;;;3.15;;
44985;SDS011;30721;49.380;7.736;2022-09-06T07:07:43;3.83;;;3.05;;
44985;SDS011;30721;49.380;7.736;2022-09-06T07:10:14;3.40;;;3.10;;
44985;SDS011;30721;49.380;7.736;2022-09-06T07:12:40;3.63;;;2.80;;
44985;SDS011;30721;49.380;7.736;2022-09-06T07:15:06;3.53;;;2.75;;
44985;SDS011;30721;49.380;7.736;2022-09-06T07:17:31;3.63;;;2.55;;
44985;SDS011;30721;49.380;7.736;2022-09-06T07:19:58;3.25;;;2.88;;
44985;SDS011;30721;49.380;7.736;2022-09-06T07:22:24;2.80;;;2.60;;
44985;SDS011;30721;49.380;7.736;2022-09-06T07:24:49;3.95;;;2.72;;
44985;SDS011;30721;49.380;7.736;2022-09-06T07:27:15;3.13;;;2.92;;
44985;SDS011;30721;49.380;7.736;2022-09-06T07:29:41;3.40;;;3.10;;
44985;SDS011;30721;49.380;7.736;2022-09-06T07:32:06;3.42;;;3.10;;
44985;SDS011;30721;49.380;7.736;2022-09-06T07:34:31;3.67;;;3.38;;
44985;SDS011;30721;49.380;7.736;2022-09-06T07:37:01;3.10;;;2.70;;
44985;SDS011;30721;49.380;7.736;2022-09-06T07:39:27;2.72;;;2.53;;
44985;SDS011;30721;49.380;7.736;2022-09-06T07:41:52;3.08;;;2.70;;
44985;SDS011;30721;49.380;7.736;2022-09-06T07:44:18;3.85;;;2.92;;
44985;SDS011;30721;49.380;7.736;2022-09-06T07:46:43;3.05;;;2.75;;
44985;SDS011;30721;49.380;7.736;2022-09-06T07:49:08;3.85;;;2.70;;
44985;SDS011;30721;49.380;7.736;2022-09-06T07:51:34;19.88;;;4.13;;
44985;SDS011;30721;49.380;7.736;2022-09-06T07:53:59;6.00;;;2.88;;
44985;SDS011;30721;49.380;7.736;2022-09-06T07:56:25;4.13;;;2.47;;
44985;SDS011;30721;49.380;7.736;2022-09-06T07:58:50;3.15;;;2.67;;
44985;SDS011;30721;49.380;7.736;2022-09-06T08:01:30;3.35;;;2.85;;
44985;SDS011;30721;49.380;7.736;2022-09-06T08:03:57;3.00;;;2.70;;
44985;SDS011;30721;49.380;7.736;2022-09-06T08:06:23;3.60;;;2.60;;
44985;SDS011;30721;49.380;7.736;2022-09-06T08:08:49;2.72;;;2.47;;
44985;SDS011;30721;49.380;7.736;2022-09-06T08:11:15;4.78;;;2.78;;
44985;SDS011;30721;49.380;7.736;2022-09-06T08:13:41;2.53;;;2.33;;
44985;SDS011;30721;49.380;7.736;2022-09-06T08:16:07;3.47;;;3.15;;
44985;SDS011;30721;49.380;7.736;2022-09-06T08:18:34;3.08;;;2.72;;
44985;SDS011;30721;49.380;7.736;2022-09-06T08:23:32;2.30;;;2.10;;
44985;SDS011;30721;49.380;7.736;2022-09-06T08:25:58;2.75;;;2.55;;
44985;SDS011;30721;49.380;7.736;2022-09-06T08:28:24;2.85;;;2.30;;
44985;SDS011;30721;49.380;7.736;2022-09-06T08:30:50;2.92;;;2.72;;
44985;SDS011;30721;49.380;7.736;2022-09-06T08:33:16;3.78;;;2.22;;
44985;SDS011;30721;49.380;7.736;2022-09-06T08:35:55;3.03;;;2.25;;
44985;SDS011;30721;49.380;7.736;2022-09-06T08:38:24;2.75;;;2.40;;
44985;SDS011;30721;49.380;7.736;2022-09-06T08:40:51;3.08;;;2.20;;
44985;SDS011;30721;49.380;7.736;2022-09-06T08:43:17;2.67;;;2.47;;
44985;SDS011;30721;49.380;7.736;2022-09-06T08:45:47;3.20;;;2.58;;
44985;SDS011;30721;49.380;7.736;2022-09-06T08:48:20;2.80;;;2.45;;
44985;SDS011;30721;49.380;7.736;2022-09-06T08:50:50;4.65;;;2.58;;
44985;SDS011;30721;49.380;7.736;2022-09-06T08:53:34;2.78;;;2.13;;
44985;SDS011;30721;49.380;7.736;2022-09-06T08:56:10;2.95;;;2.40;;
44985;SDS011;30721;49.380;7.736;2022-09-06T08:58:48;3.25;;;2.30;;
44985;SDS011;30721;49.380;7.736;2022-09-06T09:01:22;3.58;;;2.65;;
44985;SDS011;30721;49.380;7.736;2022-09-06T09:03:49;3.47;;;2.58;;
44985;SDS011;30721;49.380;7.736;2022-09-06T09:06:17;3.42;;;2.50;;
44985;SDS011;30721;49.380;7.736;2022-09-06T09:11:33;3.03;;;2.40;;
44985;SDS011;30721;49.380;7.736;2022-09-06T09:16:55;5.93;;;2.53;;
44985;SDS011;30721;49.380;7.736;2022-09-06T09:19:27;3.15;;;2.63;;
44985;SDS011;30721;49.380;7.736;2022-09-06T09:21:56;2.83;;;2.53;;
44985;SDS011;30721;49.380;7.736;2022-09-06T09:24:21;3.22;;;2.90;;
44985;SDS011;30721;49.380;7.736;2022-09-06T09:26:49;4.20;;;2.75;;
44985;SDS011;30721;49.380;7.736;2022-09-06T09:29:17;4.05;;;2.50;;
44985;SDS011;30721;49.380;7.736;2022-09-06T09:31:47;2.88;;;2.20;;
44985;SDS011;30721;49.380;7.736;2022-09-06T09:39:50;4.50;;;2.20;;
44985;SDS011;30721;49.380;7.736;2022-09-06T09:42:25;4.10;;;2.22;;
44985;SDS011;30721;49.380;7.736;2022-09-06T09:44:54;3.00;;;2.08;;
44985;SDS011;30721;49.380;7.736;2022-09-06T09:47:24;2.63;;;1.80;;
44985;SDS011;30721;49.380;7.736;2022-09-06T09:49:52;3.25;;;2.00;;
44985;SDS011;30721;49.380;7.736;2022-09-06T09:52:22;3.10;;;1.88;;
44985;SDS011;30721;49.380;7.736;2022-09-06T09:54:50;1.70;;;1.55;;
44985;SDS011;30721;49.380;7.736;2022-09-06T09:57:20;2.53;;;2.20;;
44985;SDS011;30721;49.380;7.736;2022-09-06T09:59:47;2.95;;;1.92;;
44985;SDS011;30721;49.380;7.736;2022-09-06T10:02:17;2.88;;;2.10;;
44985;SDS011;30721;49.380;7.736;2022-09-06T10:04:47;4.95;;;2.47;;
44985;SDS011;30721;49.380;7.736;2022-09-06T10:09:46;2.60;;;2.10;;
44985;SDS011;30721;49.380;7.736;2022-09-06T10:12:17;4.75;;;2.08;;
44985;SDS011;30721;49.380;7.736;2022-09-06T10:14:52;3.20;;;1.95;;
44985;SDS011;30721;49.380;7.736;2022-09-06T10:17:37;3.90;;;2.22;;
44985;SDS011;30721;49.380;7.736;2022-09-06T10:20:12;3.33;;;2.20;;
44985;SDS011;30721;49.380;7.736;2022-09-06T10:22:40;2.95;;;2.20;;
44985;SDS011;30721;49.380;7.736;2022-09-06T10:25:30;4.15;;;2.45;;
44985;SDS011;30721;49.380;7.736;2022-09-06T10:33:39;3.65;;;2.42;;
44985;SDS011;30721;49.380;7.736;2022-09-06T10:36:30;2.78;;;1.92;;
44985;SDS011;30721;49.380;7.736;2022-09-06T10:39:00;1.73;;;1.38;;
44985;SDS011;30721;49.380;7.736;2022-09-06T10:42:09;3.63;;;2.03;;
44985;SDS011;30721;49.380;7.736;2022-09-06T10:53:05;2.47;;;2.00;;
44985;SDS011;30721;49.380;7.736;2022-09-06T10:55:33;4.47;;;2.20;;
44985;SDS011;30721;49.380;7.736;2022-09-06T10:58:00;3.78;;;2.30;;
44985;SDS011;30721;49.380;7.736;2022-09-06T11:00:30;8.75;;;3.47;;
44985;SDS011;30721;49.380;7.736;2022-09-06T11:03:49;5.68;;;1.90;;
44985;SDS011;30721;49.380;7.736;2022-09-06T11:06:25;4.60;;;2.00;;
44985;SDS011;30721;49.380;7.736;2022-09-06T11:11:32;3.65;;;2.40;;
44985;SDS011;30721;49.380;7.736;2022-09-06T11:14:19;2.95;;;2.17;;
44985;SDS011;30721;49.380;7.736;2022-09-06T11:17:03;4.45;;;2.30;;
44985;SDS011;30721;49.380;7.736;2022-09-06T11:29:56;3.83;;;2.10;;
44985;SDS011;30721;49.380;7.736;2022-09-06T11:35:02;3.30;;;2.15;;
44985;SDS011;30721;49.380;7.736;2022-09-06T11:37:32;3.63;;;2.20;;
44985;SDS011;30721;49.380;7.736;2022-09-06T11:47:41;3.70;;;2.20;;
44985;SDS011;30721;49.380;7.736;2022-09-06T11:50:17;2.55;;;2.00;;
44985;SDS011;30721;49.380;7.736;2022-09-06T11:55:28;5.03;;;2.22;;
44985;SDS011;30721;49.380;7.736;2022-09-06T11:57:55;2.42;;;2.00;;
44985;SDS011;30721;49.380;7.736;2022-09-06T12:00:22;2.10;;;1.90;;
44985;SDS011;30721;49.380;7.736;2022-09-06T12:02:48;3.17;;;1.90;;
44985;SDS011;30721;49.380;7.736;2022-09-06T12:05:25;3.30;;;1.65;;
44985;SDS011;30721;49.380;7.736;2022-09-06T12:16:03;1.90;;;1.40;;
44985;SDS011;30721;49.380;7.736;2022-09-06T12:23:59;2.05;;;1.58;;
44985;SDS011;30721;49.380;7.736;2022-09-06T12:29:24;1.70;;;1.60;;
44985;SDS011;30721;49.380;7.736;2022-09-06T12:32:03;1.92;;;1.55;;
44985;SDS011;30721;49.380;7.736;2022-09-06T12:34:30;3.08;;;1.55;;
44985;SDS011;30721;49.380;7.736;2022-09-06T12:37:27;8.20;;;2.00;;
44985;SDS011;30721;49.380;7.736;2022-09-06T12:39:57;3.17;;;1.85;;
44985;SDS011;30721;49.380;7.736;2022-09-06T12:42:23;2.28;;;2.03;;
44985;SDS011;30721;49.380;7.736;2022-09-06T12:44:49;2.65;;;1.63;;
44985;SDS011;30721;49.380;7.736;2022-09-06T12:47:30;2.92;;;1.60;;
44985;SDS011;30721;49.380;7.736;2022-09-06T12:56:27;2.30;;;2.10;;
44985;SDS011;30721;49.380;7.736;2022-09-06T12:59:10;1.60;;;1.50;;
44985;SDS011;30721;49.380;7.736;2022-09-06T13:02:04;1.85;;;1.52;;
44985;SDS011;30721;49.380;7.736;2022-09-06T13:04:37;3.08;;;1.33;;
44985;SDS011;30721;49.380;7.736;2022-09-06T13:07:04;1.83;;;1.73;;
44985;SDS011;30721;49.380;7.736;2022-09-06T13:09:30;2.67;;;1.40;;
44985;SDS011;30721;49.380;7.736;2022-09-06T13:12:00;2.65;;;1.80;;
44985;SDS011;30721;49.380;7.736;2022-09-06T13:14:30;2.35;;;1.52;;
44985;SDS011;30721;49.380;7.736;2022-09-06T13:16:56;1.95;;;1.55;;
44985;SDS011;30721;49.380;7.736;2022-09-06T13:21:58;1.80;;;1.38;;
44985;SDS011;30721;49.380;7.736;2022-09-06T13:24:25;2.60;;;1.55;;
44985;SDS011;30721;49.380;7.736;2022-09-06T13:32:25;4.25;;;1.60;;
44985;SDS011;30721;49.380;7.736;2022-09-06T13:34:51;2.97;;;1.80;;
44985;SDS011;30721;49.380;7.736;2022-09-06T13:37:23;1.92;;;1.45;;
44985;SDS011;30721;49.380;7.736;2022-09-06T13:39:50;2.13;;;1.67;;
44985;SDS011;30721;49.380;7.736;2022-09-06T13:44:54;1.58;;;1.48;;
44985;SDS011;30721;49.380;7.736;2022-09-06T13:47:20;1.52;;;1.30;;
44985;SDS011;30721;49.380;7.736;2022-09-06T13:49:46;1.48;;;1.38;;
44985;SDS011;30721;49.380;7.736;2022-09-06T13:52:11;1.80;;;1.70;;
44985;SDS011;30721;49.380;7.736;2022-09-06T13:54:38;2.22;;;1.40;;
44985;SDS011;30721;49.380;7.736;2022-09-06T13:57:04;2.30;;;1.80;;
44985;SDS011;30721;49.380;7.736;2022-09-06T13:59:29;2.40;;;1.30;;
44985;SDS011;30721;49.380;7.736;2022-09-06T14:01:59;2.53;;;1.75;;
44985;SDS011;30721;49.380;7.736;2022-09-06T14:04:33;1.67;;;1.48;;
44985;SDS011;30721;49.380;7.736;2022-09-06T14:06:59;1.85;;;1.70;;
44985;SDS011;30721;49.380;7.736;2022-09-06T14:09:25;1.92;;;1.80;;
44985;SDS011;30721;49.380;7.736;2022-09-06T14:11:50;2.33;;;1.35;;
44985;SDS011;30721;49.380;7.736;2022-09-06T14:14:16;4.90;;;1.80;;
44985;SDS011;30721;49.380;7.736;2022-09-06T14:16:42;2.17;;;1.75;;
44985;SDS011;30721;49.380;7.736;2022-09-06T14:19:08;3.15;;;1.92;;
44985;SDS011;30721;49.380;7.736;2022-09-06T14:21:33;1.98;;;1.88;;
44985;SDS011;30721;49.380;7.736;2022-09-06T14:23:59;1.95;;;1.65;;
44985;SDS011;30721;49.380;7.736;2022-09-06T14:26:25;2.22;;;1.67;;
44985;SDS011;30721;49.380;7.736;2022-09-06T14:28:51;1.48;;;1.38;;
44985;SDS011;30721;49.380;7.736;2022-09-06T14:31:20;2.03;;;1.60;;
44985;SDS011;30721;49.380;7.736;2022-09-06T14:33:47;3.15;;;1.60;;
44985;SDS011;30721;49.380;7.736;2022-09-06T14:36:14;1.45;;;1.17;;
44985;SDS011;30721;49.380;7.736;2022-09-06T14:38:41;2.15;;;1.23;;
44985;SDS011;30721;49.380;7.736;2022-09-06T14:41:08;1.30;;;1.30;;
44985;SDS011;30721;49.380;7.736;2022-09-06T14:43:34;2.00;;;1.20;;
44985;SDS011;30721;49.380;7.736;2022-09-06T14:46:01;1.98;;;1.13;;
44985;SDS011;30721;49.380;7.736;2022-09-06T14:48:28;1.45;;;1.30;;
44985;SDS011;30721;49.380;7.736;2022-09-06T14:50:55;2.20;;;1.30;;
44985;SDS011;30721;49.380;7.736;2022-09-06T14:53:21;1.30;;;1.20;;
44985;SDS011;30721;49.380;7.736;2022-09-06T14:55:46;1.33;;;1.20;;
44985;SDS011;30721;49.380;7.736;2022-09-06T14:58:12;2.35;;;1.10;;
44985;SDS011;30721;49.380;7.736;2022-09-06T15:00:38;2.72;;;1.35;;
44985;SDS011;30721;49.380;7.736;2022-09-06T15:03:04;1.85;;;1.27;;
44985;SDS011;30721;49.380;7.736;2022-09-06T15:05:29;1.67;;;1.58;;
44985;SDS011;30721;49.380;7.736;2022-09-06T15:07:55;3.10;;;1.27;;
44985;SDS011;30721;49.380;7.736;2022-09-06T15:10:20;2.75;;;1.38;;
44985;SDS011;30721;49.380;7.736;2022-09-06T15:12:46;1.80;;;1.35;;
44985;SDS011;30721;49.380;7.736;2022-09-06T15:15:11;2.33;;;1.23;;
44985;SDS011;30721;49.380;7.736;2022-09-06T15:17:36;5.85;;;1.23;;
44985;SDS011;30721;49.380;7.736;2022-09-06T15:20:02;1.58;;;1.00;;
44985;SDS011;30721;49.380;7.736;2022-09-06T15:22:28;2.20;;;1.13;;
44985;SDS011;30721;49.380;7.736;2022-09-06T15:24:53;1.25;;;1.08;;
44985;SDS011;30721;49.380;7.736;2022-09-06T15:27:19;1.90;;;1.63;;
44985;SDS011;30721;49.380;7.736;2022-09-06T15:29:45;1.50;;;1.40;;
44985;SDS011;30721;49.380;7.736;2022-09-06T15:32:10;1.80;;;1.10;;
44985;SDS011;30721;49.380;7.736;2022-09-06T15:34:36;2.67;;;1.35;;
44985;SDS011;30721;49.380;7.736;2022-09-06T15:37:01;2.28;;;1.40;;
44985;SDS011;30721;49.380;7.736;2022-09-06T15:39:27;2.60;;;1.60;;
44985;SDS011;30721;49.380;7.736;2022-09-06T15:41:53;2.60;;;1.60;;
44985;SDS011;30721;49.380;7.736;2022-09-06T15:44:18;2.72;;;1.83;;
44985;SDS011;30721;49.380;7.736;2022-09-06T15:46:52;2.63;;;1.67;;
44985;SDS011;30721;49.380;7.736;2022-09-06T15:49:20;4.20;;;1.80;;
44985;SDS011;30721;49.380;7.736;2022-09-06T15:51:47;1.80;;;1.40;;
44985;SDS011;30721;49.380;7.736;2022-09-06T15:54:14;1.90;;;1.58;;
44985;SDS011;30721;49.380;7.736;2022-09-06T15:56:40;2.45;;;1.60;;
44985;SDS011;30721;49.380;7.736;2022-09-06T15:59:06;1.30;;;1.20;;
44985;SDS011;30721;49.380;7.736;2022-09-06T16:01:31;3.42;;;1.67;;
44985;SDS011;30721;49.380;7.736;2022-09-06T16:04:00;2.80;;;1.60;;
44985;SDS011;30721;49.380;7.736;2022-09-06T16:06:38;3.35;;;1.85;;
44985;SDS011;30721;49.380;7.736;2022-09-06T16:09:10;3.53;;;1.90;;
44985;SDS011;30721;49.380;7.736;2022-09-06T16:14:08;2.33;;;2.10;;
44985;SDS011;30721;49.380;7.736;2022-09-06T16:16:34;3.17;;;1.98;;
44985;SDS011;30721;49.380;7.736;2022-09-06T16:19:00;2.55;;;1.98;;
44985;SDS011;30721;49.380;7.736;2022-09-06T16:21:26;2.42;;;2.20;;
44985;SDS011;30721;49.380;7.736;2022-09-06T16:23:58;2.60;;;2.20;;
44985;SDS011;30721;49.380;7.736;2022-09-06T16:26:32;2.20;;;2.00;;
44985;SDS011;30721;49.380;7.736;2022-09-06T16:28:59;2.97;;;2.10;;
44985;SDS011;30721;49.380;7.736;2022-09-06T16:31:25;2.15;;;1.95;;
44985;SDS011;30721;49.380;7.736;2022-09-06T16:33:51;3.25;;;1.92;;
44985;SDS011;30721;49.380;7.736;2022-09-06T16:36:18;2.80;;;2.03;;
44985;SDS011;30721;49.380;7.736;2022-09-06T16:38:45;3.50;;;2.28;;
44985;SDS011;30721;49.380;7.736;2022-09-06T16:41:12;3.53;;;2.47;;
44985;SDS011;30721;49.380;7.736;2022-09-06T16:43:51;3.35;;;2.50;;
44985;SDS011;30721;49.380;7.736;2022-09-06T16:46:17;3.17;;;2.30;;
44985;SDS011;30721;49.380;7.736;2022-09-06T16:48:50;2.80;;;2.50;;
44985;SDS011;30721;49.380;7.736;2022-09-06T16:51:17;3.88;;;2.50;;
44985;SDS011;30721;49.380;7.736;2022-09-06T16:53:44;3.63;;;2.30;;
44985;SDS011;30721;49.380;7.736;2022-09-06T16:56:11;3.78;;;2.00;;
44985;SDS011;30721;49.380;7.736;2022-09-06T16:58:38;2.70;;;2.30;;
44985;SDS011;30721;49.380;7.736;2022-09-06T17:01:05;3.10;;;2.13;;
44985;SDS011;30721;49.380;7.736;2022-09-06T17:03:36;3.50;;;2.63;;
44985;SDS011;30721;49.380;7.736;2022-09-06T17:06:03;3.08;;;2.30;;
44985;SDS011;30721;49.380;7.736;2022-09-06T17:08:29;3.05;;;2.08;;
44985;SDS011;30721;49.380;7.736;2022-09-06T17:10:58;3.40;;;1.77;;